sensor_id;sensor_type;location;lat;lon;timestamp;P1;durP1;ratioP1;P2;durP2;ratioP2
6651;SDS011;3362;50.892;10.692;2023-06-22T00:00:31;2.03;;;1.80;;
6651;SDS011;3362;50.892;10.692;2023-06-22T00:02:57;6.00;;;2.42;;
6651;SDS011;3362;50.892;10.692;2023-06-22T00:05:25;2.88;;;2.42;;
6651;SDS011;3362;50.892;10.692;2023-06-22T00:07:51;3.35;;;2.28;;
6651;SDS011;3362;50.892;10.692;2023-06-22T00:10:17;5.95;;;3.25;;
6651;SDS011;3362;50.892;10.692;2023-06-22T00:12:43;5.00;;;2.28;;
6651;SDS011;3362;50.892;10.692;2023-06-22T00:15:10;6.28;;;2.55;;
6651;SDS011;3362;50.892;10.692;2023-06-22T00:17:36;6.35;;;2.90;;
6651;SDS011;3362;50.892;10.692;2023-06-22T00:20:02;4.75;;;2.45;;
6651;SDS011;3362;50.892;10.692;2023-06-22T00:22:34;4.25;;;2.50;;
6651;SDS011;3362;50.892;10.692;2023-06-22T00:25:04;5.47;;;3.17;;
6651;SDS011;3362;50.892;10.692;2023-06-22T00:27:30;6.03;;;2.35;;
6651;SDS011;3362;50.892;10.692;2023-06-22T00:29:56;6.68;;;3.00;;
6651;SDS011;3362;50.892;10.692;2023-06-22T00:32:22;4.57;;;2.65;;
6651;SDS011;3362;50.892;10.692;2023-06-22T00:34:49;5.63;;;3.00;;
6651;SDS011;3362;50.892;10.692;2023-06-22T00:37:16;6.85;;;3.22;;
6651;SDS011;3362;50.892;10.692;2023-06-22T00:39:43;4.20;;;2.67;;
6651;SDS011;3362;50.892;10.692;2023-06-22T00:42:09;3.60;;;2.90;;
6651;SDS011;3362;50.892;10.692;2023-06-22T00:44:35;4.97;;;2.95;;
6651;SDS011;3362;50.892;10.692;2023-06-22T00:47:02;4.90;;;3.28;;
6651;SDS011;3362;50.892;10.692;2023-06-22T00:49:28;5.38;;;3.25;;
6651;SDS011;3362;50.892;10.692;2023-06-22T00:51:55;4.60;;;3.17;;
6651;SDS011;3362;50.892;10.692;2023-06-22T00:54:21;4.45;;;3.28;;
6651;SDS011;3362;50.892;10.692;2023-06-22T00:56:51;4.95;;;3.03;;
6651;SDS011;3362;50.892;10.692;2023-06-22T00:59:19;7.57;;;3.33;;
6651;SDS011;3362;50.892;10.692;2023-06-22T01:01:45;4.07;;;3.22;;
6651;SDS011;3362;50.892;10.692;2023-06-22T01:04:11;7.25;;;2.92;;
6651;SDS011;3362;50.892;10.692;2023-06-22T01:06:38;4.55;;;3.60;;
6651;SDS011;3362;50.892;10.692;2023-06-22T01:09:08;3.75;;;2.75;;
6651;SDS011;3362;50.892;10.692;2023-06-22T01:11:41;9.63;;;3.10;;
6651;SDS011;3362;50.892;10.692;2023-06-22T01:14:12;5.55;;;3.08;;
6651;SDS011;3362;50.892;10.692;2023-06-22T01:16:40;5.35;;;2.67;;
6651;SDS011;3362;50.892;10.692;2023-06-22T01:19:09;3.45;;;3.15;;
6651;SDS011;3362;50.892;10.692;2023-06-22T01:21:38;6.70;;;4.13;;
6651;SDS011;3362;50.892;10.692;2023-06-22T01:24:09;4.05;;;3.08;;
6651;SDS011;3362;50.892;10.692;2023-06-22T01:26:37;6.18;;;3.35;;
6651;SDS011;3362;50.892;10.692;2023-06-22T01:29:06;6.05;;;3.40;;
6651;SDS011;3362;50.892;10.692;2023-06-22T01:31:35;5.07;;;3.13;;
6651;SDS011;3362;50.892;10.692;2023-06-22T01:34:03;3.83;;;2.97;;
6651;SDS011;3362;50.892;10.692;2023-06-22T01:36:29;6.60;;;3.55;;
6651;SDS011;3362;50.892;10.692;2023-06-22T01:38:56;5.90;;;3.33;;
6651;SDS011;3362;50.892;10.692;2023-06-22T01:41:24;3.78;;;3.28;;
6651;SDS011;3362;50.892;10.692;2023-06-22T01:43:51;6.60;;;3.25;;
6651;SDS011;3362;50.892;10.692;2023-06-22T01:46:18;4.00;;;3.22;;
6651;SDS011;3362;50.892;10.692;2023-06-22T01:48:46;4.18;;;3.30;;
6651;SDS011;3362;50.892;10.692;2023-06-22T01:51:12;4.28;;;2.90;;
6651;SDS011;3362;50.892;10.692;2023-06-22T01:53:38;3.83;;;3.17;;
6651;SDS011;3362;50.892;10.692;2023-06-22T01:56:04;4.25;;;3.17;;
6651;SDS011;3362;50.892;10.692;2023-06-22T01:58:31;4.60;;;3.40;;
6651;SDS011;3362;50.892;10.692;2023-06-22T02:00:58;5.60;;;3.30;;
6651;SDS011;3362;50.892;10.692;2023-06-22T02:03:30;4.75;;;3.42;;
6651;SDS011;3362;50.892;10.692;2023-06-22T02:05:58;7.18;;;2.88;;
6651;SDS011;3362;50.892;10.692;2023-06-22T02:08:29;6.90;;;3.53;;
6651;SDS011;3362;50.892;10.692;2023-06-22T02:10:57;4.95;;;3.75;;
6651;SDS011;3362;50.892;10.692;2023-06-22T02:13:24;5.78;;;3.72;;
6651;SDS011;3362;50.892;10.692;2023-06-22T02:15:50;6.90;;;3.88;;
6651;SDS011;3362;50.892;10.692;2023-06-22T02:18:16;5.45;;;3.83;;
6651;SDS011;3362;50.892;10.692;2023-06-22T02:20:44;4.55;;;3.05;;
6651;SDS011;3362;50.892;10.692;2023-06-22T02:23:10;6.03;;;3.50;;
6651;SDS011;3362;50.892;10.692;2023-06-22T02:25:37;6.00;;;3.63;;
6651;SDS011;3362;50.892;10.692;2023-06-22T02:28:03;7.88;;;3.80;;
6651;SDS011;3362;50.892;10.692;2023-06-22T02:30:29;5.97;;;3.80;;
6651;SDS011;3362;50.892;10.692;2023-06-22T02:32:56;5.30;;;3.45;;
6651;SDS011;3362;50.892;10.692;2023-06-22T02:35:24;9.73;;;4.13;;
6651;SDS011;3362;50.892;10.692;2023-06-22T02:37:52;14.80;;;3.78;;
6651;SDS011;3362;50.892;10.692;2023-06-22T02:40:19;8.52;;;4.15;;
6651;SDS011;3362;50.892;10.692;2023-06-22T02:42:45;7.38;;;3.80;;
6651;SDS011;3362;50.892;10.692;2023-06-22T02:45:11;11.95;;;4.00;;
6651;SDS011;3362;50.892;10.692;2023-06-22T02:47:37;8.10;;;4.20;;
6651;SDS011;3362;50.892;10.692;2023-06-22T02:50:04;10.13;;;4.18;;
6651;SDS011;3362;50.892;10.692;2023-06-22T02:52:30;6.55;;;3.55;;
6651;SDS011;3362;50.892;10.692;2023-06-22T02:54:58;19.90;;;4.30;;
6651;SDS011;3362;50.892;10.692;2023-06-22T02:57:24;4.78;;;3.25;;
6651;SDS011;3362;50.892;10.692;2023-06-22T02:59:50;12.82;;;3.85;;
6651;SDS011;3362;50.892;10.692;2023-06-22T03:02:16;12.57;;;4.47;;
6651;SDS011;3362;50.892;10.692;2023-06-22T03:04:45;8.27;;;4.00;;
6651;SDS011;3362;50.892;10.692;2023-06-22T03:07:13;9.75;;;3.47;;
6651;SDS011;3362;50.892;10.692;2023-06-22T03:09:39;9.93;;;4.32;;
6651;SDS011;3362;50.892;10.692;2023-06-22T03:12:08;5.03;;;3.58;;
6651;SDS011;3362;50.892;10.692;2023-06-22T03:14:34;7.18;;;3.33;;
6651;SDS011;3362;50.892;10.692;2023-06-22T03:17:01;6.55;;;4.63;;
6651;SDS011;3362;50.892;10.692;2023-06-22T03:19:28;6.05;;;4.28;;
6651;SDS011;3362;50.892;10.692;2023-06-22T03:21:56;7.32;;;4.68;;
6651;SDS011;3362;50.892;10.692;2023-06-22T03:24:22;10.07;;;3.97;;
6651;SDS011;3362;50.892;10.692;2023-06-22T03:26:48;6.00;;;4.18;;
6651;SDS011;3362;50.892;10.692;2023-06-22T03:29:16;9.63;;;4.22;;
6651;SDS011;3362;50.892;10.692;2023-06-22T03:31:42;5.82;;;4.15;;
6651;SDS011;3362;50.892;10.692;2023-06-22T03:34:08;9.55;;;4.13;;
6651;SDS011;3362;50.892;10.692;2023-06-22T03:36:34;5.85;;;4.18;;
6651;SDS011;3362;50.892;10.692;2023-06-22T03:39:00;6.65;;;4.30;;
6651;SDS011;3362;50.892;10.692;2023-06-22T03:41:27;4.93;;;3.95;;
6651;SDS011;3362;50.892;10.692;2023-06-22T03:43:53;7.32;;;4.82;;
6651;SDS011;3362;50.892;10.692;2023-06-22T03:46:20;6.00;;;4.60;;
6651;SDS011;3362;50.892;10.692;2023-06-22T03:48:46;6.45;;;4.43;;
6651;SDS011;3362;50.892;10.692;2023-06-22T03:51:13;6.53;;;3.97;;
6651;SDS011;3362;50.892;10.692;2023-06-22T03:53:39;7.88;;;5.07;;
6651;SDS011;3362;50.892;10.692;2023-06-22T03:56:05;12.25;;;4.50;;
6651;SDS011;3362;50.892;10.692;2023-06-22T03:58:31;9.65;;;5.13;;
6651;SDS011;3362;50.892;10.692;2023-06-22T04:00:58;9.65;;;6.65;;
6651;SDS011;3362;50.892;10.692;2023-06-22T04:03:27;8.60;;;5.70;;
6651;SDS011;3362;50.892;10.692;2023-06-22T04:05:53;9.00;;;5.43;;
6651;SDS011;3362;50.892;10.692;2023-06-22T04:08:19;11.25;;;5.40;;
6651;SDS011;3362;50.892;10.692;2023-06-22T04:10:45;12.00;;;5.38;;
6651;SDS011;3362;50.892;10.692;2023-06-22T04:13:11;10.15;;;5.50;;
6651;SDS011;3362;50.892;10.692;2023-06-22T04:15:37;16.25;;;5.55;;
6651;SDS011;3362;50.892;10.692;2023-06-22T04:18:04;9.25;;;5.32;;
6651;SDS011;3362;50.892;10.692;2023-06-22T04:20:32;7.07;;;5.05;;
6651;SDS011;3362;50.892;10.692;2023-06-22T04:22:58;8.88;;;5.07;;
6651;SDS011;3362;50.892;10.692;2023-06-22T04:25:24;8.57;;;4.97;;
6651;SDS011;3362;50.892;10.692;2023-06-22T04:27:50;9.80;;;5.03;;
6651;SDS011;3362;50.892;10.692;2023-06-22T04:30:17;9.38;;;5.15;;
6651;SDS011;3362;50.892;10.692;2023-06-22T04:32:43;8.65;;;5.65;;
6651;SDS011;3362;50.892;10.692;2023-06-22T04:35:09;11.02;;;5.18;;
6651;SDS011;3362;50.892;10.692;2023-06-22T04:37:37;9.02;;;5.07;;
6651;SDS011;3362;50.892;10.692;2023-06-22T04:40:04;8.57;;;4.88;;
6651;SDS011;3362;50.892;10.692;2023-06-22T04:42:33;13.05;;;4.85;;
6651;SDS011;3362;50.892;10.692;2023-06-22T04:44:59;9.88;;;5.07;;
6651;SDS011;3362;50.892;10.692;2023-06-22T04:47:26;10.07;;;4.97;;
6651;SDS011;3362;50.892;10.692;2023-06-22T04:49:52;10.45;;;5.50;;
6651;SDS011;3362;50.892;10.692;2023-06-22T04:52:18;9.43;;;5.32;;
6651;SDS011;3362;50.892;10.692;2023-06-22T04:54:46;10.77;;;5.53;;
6651;SDS011;3362;50.892;10.692;2023-06-22T04:57:15;8.48;;;5.68;;
6651;SDS011;3362;50.892;10.692;2023-06-22T04:59:41;7.55;;;4.95;;
6651;SDS011;3362;50.892;10.692;2023-06-22T05:02:08;7.85;;;5.13;;
6651;SDS011;3362;50.892;10.692;2023-06-22T05:04:34;12.98;;;5.40;;
6651;SDS011;3362;50.892;10.692;2023-06-22T05:07:03;12.15;;;5.85;;
6651;SDS011;3362;50.892;10.692;2023-06-22T05:09:30;11.18;;;5.47;;
6651;SDS011;3362;50.892;10.692;2023-06-22T05:11:57;12.50;;;6.53;;
6651;SDS011;3362;50.892;10.692;2023-06-22T05:14:24;11.70;;;5.68;;
6651;SDS011;3362;50.892;10.692;2023-06-22T05:16:50;12.43;;;6.15;;
6651;SDS011;3362;50.892;10.692;2023-06-22T05:19:17;12.40;;;6.13;;
6651;SDS011;3362;50.892;10.692;2023-06-22T05:21:44;7.63;;;5.53;;
6651;SDS011;3362;50.892;10.692;2023-06-22T05:24:10;9.60;;;5.22;;
6651;SDS011;3362;50.892;10.692;2023-06-22T05:26:36;9.10;;;5.30;;
6651;SDS011;3362;50.892;10.692;2023-06-22T05:29:04;10.98;;;5.88;;
6651;SDS011;3362;50.892;10.692;2023-06-22T05:31:31;19.80;;;5.55;;
6651;SDS011;3362;50.892;10.692;2023-06-22T05:33:57;9.90;;;5.43;;
6651;SDS011;3362;50.892;10.692;2023-06-22T05:36:24;12.60;;;5.63;;
6651;SDS011;3362;50.892;10.692;2023-06-22T05:38:51;8.75;;;6.07;;
6651;SDS011;3362;50.892;10.692;2023-06-22T05:41:17;12.43;;;6.60;;
6651;SDS011;3362;50.892;10.692;2023-06-22T05:43:44;6.80;;;5.35;;
6651;SDS011;3362;50.892;10.692;2023-06-22T05:46:11;10.77;;;6.28;;
6651;SDS011;3362;50.892;10.692;2023-06-22T05:48:37;9.57;;;6.60;;
6651;SDS011;3362;50.892;10.692;2023-06-22T05:51:04;8.90;;;6.55;;
6651;SDS011;3362;50.892;10.692;2023-06-22T05:53:30;8.98;;;5.72;;
6651;SDS011;3362;50.892;10.692;2023-06-22T05:55:56;12.10;;;6.03;;
6651;SDS011;3362;50.892;10.692;2023-06-22T05:58:22;8.90;;;4.97;;
6651;SDS011;3362;50.892;10.692;2023-06-22T06:00:48;8.70;;;5.20;;
6651;SDS011;3362;50.892;10.692;2023-06-22T06:03:16;9.15;;;5.63;;
6651;SDS011;3362;50.892;10.692;2023-06-22T06:05:42;9.45;;;6.15;;
6651;SDS011;3362;50.892;10.692;2023-06-22T06:08:09;10.70;;;4.90;;
6651;SDS011;3362;50.892;10.692;2023-06-22T06:10:36;14.80;;;5.43;;
6651;SDS011;3362;50.892;10.692;2023-06-22T06:13:03;7.45;;;5.07;;
6651;SDS011;3362;50.892;10.692;2023-06-22T06:15:29;9.65;;;5.43;;
6651;SDS011;3362;50.892;10.692;2023-06-22T06:17:55;9.75;;;5.72;;
6651;SDS011;3362;50.892;10.692;2023-06-22T06:20:24;13.18;;;5.75;;
6651;SDS011;3362;50.892;10.692;2023-06-22T06:22:51;10.02;;;6.93;;
6651;SDS011;3362;50.892;10.692;2023-06-22T06:25:17;21.40;;;6.95;;
6651;SDS011;3362;50.892;10.692;2023-06-22T06:27:45;11.98;;;6.93;;
6651;SDS011;3362;50.892;10.692;2023-06-22T06:30:12;13.73;;;6.35;;
6651;SDS011;3362;50.892;10.692;2023-06-22T06:32:38;9.38;;;6.20;;
6651;SDS011;3362;50.892;10.692;2023-06-22T06:35:05;10.50;;;6.00;;
6651;SDS011;3362;50.892;10.692;2023-06-22T06:37:33;8.93;;;6.10;;
6651;SDS011;3362;50.892;10.692;2023-06-22T06:39:59;9.88;;;6.45;;
6651;SDS011;3362;50.892;10.692;2023-06-22T06:42:25;13.10;;;6.60;;
6651;SDS011;3362;50.892;10.692;2023-06-22T06:44:51;12.02;;;6.57;;
6651;SDS011;3362;50.892;10.692;2023-06-22T06:47:17;14.30;;;6.43;;
6651;SDS011;3362;50.892;10.692;2023-06-22T06:49:43;9.45;;;5.45;;
6651;SDS011;3362;50.892;10.692;2023-06-22T06:52:10;9.25;;;5.20;;
6651;SDS011;3362;50.892;10.692;2023-06-22T06:54:37;7.85;;;5.47;;
6651;SDS011;3362;50.892;10.692;2023-06-22T06:57:04;13.50;;;6.15;;
6651;SDS011;3362;50.892;10.692;2023-06-22T06:59:30;9.77;;;5.35;;
6651;SDS011;3362;50.892;10.692;2023-06-22T07:01:56;10.57;;;5.35;;
6651;SDS011;3362;50.892;10.692;2023-06-22T07:04:22;7.45;;;5.30;;
6651;SDS011;3362;50.892;10.692;2023-06-22T07:06:48;7.80;;;5.82;;
6651;SDS011;3362;50.892;10.692;2023-06-22T07:09:15;11.02;;;5.35;;
6651;SDS011;3362;50.892;10.692;2023-06-22T07:11:42;7.30;;;5.60;;
6651;SDS011;3362;50.892;10.692;2023-06-22T07:14:08;12.50;;;6.22;;
6651;SDS011;3362;50.892;10.692;2023-06-22T07:16:34;7.00;;;5.38;;
6651;SDS011;3362;50.892;10.692;2023-06-22T07:19:01;9.88;;;5.93;;
6651;SDS011;3362;50.892;10.692;2023-06-22T07:21:27;9.05;;;5.53;;
6651;SDS011;3362;50.892;10.692;2023-06-22T07:23:53;11.20;;;7.03;;
6651;SDS011;3362;50.892;10.692;2023-06-22T07:26:20;12.43;;;5.75;;
6651;SDS011;3362;50.892;10.692;2023-06-22T07:28:47;6.85;;;5.22;;
6651;SDS011;3362;50.892;10.692;2023-06-22T07:31:15;11.88;;;6.57;;
6651;SDS011;3362;50.892;10.692;2023-06-22T07:33:42;12.85;;;6.57;;
6651;SDS011;3362;50.892;10.692;2023-06-22T07:36:08;8.10;;;5.95;;
6651;SDS011;3362;50.892;10.692;2023-06-22T07:38:34;7.93;;;5.50;;
6651;SDS011;3362;50.892;10.692;2023-06-22T07:41:00;8.77;;;5.43;;
6651;SDS011;3362;50.892;10.692;2023-06-22T07:43:27;13.90;;;6.68;;
6651;SDS011;3362;50.892;10.692;2023-06-22T07:45:56;8.63;;;6.45;;
6651;SDS011;3362;50.892;10.692;2023-06-22T07:48:22;10.43;;;5.90;;
6651;SDS011;3362;50.892;10.692;2023-06-22T07:50:49;8.27;;;6.63;;
6651;SDS011;3362;50.892;10.692;2023-06-22T07:53:15;10.63;;;6.15;;
6651;SDS011;3362;50.892;10.692;2023-06-22T07:55:41;8.68;;;5.85;;
6651;SDS011;3362;50.892;10.692;2023-06-22T07:58:07;8.55;;;6.40;;
6651;SDS011;3362;50.892;10.692;2023-06-22T08:00:33;7.78;;;5.38;;
6651;SDS011;3362;50.892;10.692;2023-06-22T08:03:01;8.57;;;5.88;;
6651;SDS011;3362;50.892;10.692;2023-06-22T08:05:28;9.30;;;6.50;;
6651;SDS011;3362;50.892;10.692;2023-06-22T08:07:55;10.52;;;6.30;;
6651;SDS011;3362;50.892;10.692;2023-06-22T08:10:21;9.48;;;6.78;;
6651;SDS011;3362;50.892;10.692;2023-06-22T08:12:47;12.23;;;6.32;;
6651;SDS011;3362;50.892;10.692;2023-06-22T08:15:13;7.78;;;6.43;;
6651;SDS011;3362;50.892;10.692;2023-06-22T08:17:40;11.60;;;7.03;;
6651;SDS011;3362;50.892;10.692;2023-06-22T08:20:08;10.00;;;5.78;;
6651;SDS011;3362;50.892;10.692;2023-06-22T08:22:36;8.27;;;6.07;;
6651;SDS011;3362;50.892;10.692;2023-06-22T08:25:03;11.57;;;6.20;;
6651;SDS011;3362;50.892;10.692;2023-06-22T08:27:29;8.52;;;6.35;;
6651;SDS011;3362;50.892;10.692;2023-06-22T08:29:56;8.20;;;6.32;;
6651;SDS011;3362;50.892;10.692;2023-06-22T08:32:23;9.35;;;6.47;;
6651;SDS011;3362;50.892;10.692;2023-06-22T08:34:51;8.02;;;6.25;;
6651;SDS011;3362;50.892;10.692;2023-06-22T08:37:18;9.10;;;6.30;;
6651;SDS011;3362;50.892;10.692;2023-06-22T08:39:45;7.25;;;5.40;;
6651;SDS011;3362;50.892;10.692;2023-06-22T08:42:11;8.45;;;5.75;;
6651;SDS011;3362;50.892;10.692;2023-06-22T08:44:38;8.75;;;6.10;;
6651;SDS011;3362;50.892;10.692;2023-06-22T08:47:04;8.55;;;5.38;;
6651;SDS011;3362;50.892;10.692;2023-06-22T08:49:30;7.28;;;5.90;;
6651;SDS011;3362;50.892;10.692;2023-06-22T08:51:56;11.13;;;5.75;;
6651;SDS011;3362;50.892;10.692;2023-06-22T08:54:24;7.75;;;5.20;;
6651;SDS011;3362;50.892;10.692;2023-06-22T08:56:50;10.27;;;4.60;;
6651;SDS011;3362;50.892;10.692;2023-06-22T08:59:16;6.07;;;5.00;;
6651;SDS011;3362;50.892;10.692;2023-06-22T09:01:42;8.95;;;4.90;;
6651;SDS011;3362;50.892;10.692;2023-06-22T09:04:10;9.80;;;5.75;;
6651;SDS011;3362;50.892;10.692;2023-06-22T09:06:36;8.35;;;6.13;;
6651;SDS011;3362;50.892;10.692;2023-06-22T09:09:06;8.70;;;5.22;;
6651;SDS011;3362;50.892;10.692;2023-06-22T09:11:33;8.35;;;5.18;;
6651;SDS011;3362;50.892;10.692;2023-06-22T09:14:00;7.78;;;5.70;;
6651;SDS011;3362;50.892;10.692;2023-06-22T09:16:26;8.68;;;5.60;;
6651;SDS011;3362;50.892;10.692;2023-06-22T09:18:52;7.72;;;5.47;;
6651;SDS011;3362;50.892;10.692;2023-06-22T09:21:18;11.27;;;6.20;;
6651;SDS011;3362;50.892;10.692;2023-06-22T09:23:44;8.80;;;6.10;;
6651;SDS011;3362;50.892;10.692;2023-06-22T09:26:15;7.72;;;4.70;;
6651;SDS011;3362;50.892;10.692;2023-06-22T09:28:42;8.43;;;5.35;;
6651;SDS011;3362;50.892;10.692;2023-06-22T09:31:08;6.53;;;4.97;;
6651;SDS011;3362;50.892;10.692;2023-06-22T09:33:35;7.43;;;5.95;;
6651;SDS011;3362;50.892;10.692;2023-06-22T09:36:01;9.10;;;6.32;;
6651;SDS011;3362;50.892;10.692;2023-06-22T09:38:27;5.43;;;4.85;;
6651;SDS011;3362;50.892;10.692;2023-06-22T09:40:53;9.75;;;5.35;;
6651;SDS011;3362;50.892;10.692;2023-06-22T09:43:20;7.45;;;5.50;;
6651;SDS011;3362;50.892;10.692;2023-06-22T09:45:47;13.00;;;6.35;;
6651;SDS011;3362;50.892;10.692;2023-06-22T09:48:13;15.88;;;5.85;;
6651;SDS011;3362;50.892;10.692;2023-06-22T09:50:40;13.95;;;5.15;;
6651;SDS011;3362;50.892;10.692;2023-06-22T09:53:06;14.43;;;5.78;;
6651;SDS011;3362;50.892;10.692;2023-06-22T09:55:32;13.55;;;6.20;;
6651;SDS011;3362;50.892;10.692;2023-06-22T09:57:59;7.00;;;5.32;;
6651;SDS011;3362;50.892;10.692;2023-06-22T10:00:25;7.15;;;5.55;;
6651;SDS011;3362;50.892;10.692;2023-06-22T10:02:53;9.93;;;5.20;;
6651;SDS011;3362;50.892;10.692;2023-06-22T10:05:20;14.50;;;7.10;;
6651;SDS011;3362;50.892;10.692;2023-06-22T10:07:47;9.15;;;6.95;;
6651;SDS011;3362;50.892;10.692;2023-06-22T10:10:13;8.95;;;5.30;;
6651;SDS011;3362;50.892;10.692;2023-06-22T10:12:44;12.98;;;5.97;;
6651;SDS011;3362;50.892;10.692;2023-06-22T10:15:11;9.55;;;6.32;;
6651;SDS011;3362;50.892;10.692;2023-06-22T10:17:37;14.77;;;5.68;;
6651;SDS011;3362;50.892;10.692;2023-06-22T10:20:06;8.77;;;5.75;;
6651;SDS011;3362;50.892;10.692;2023-06-22T10:22:36;9.68;;;5.00;;
6651;SDS011;3362;50.892;10.692;2023-06-22T10:25:03;8.98;;;5.30;;
6651;SDS011;3362;50.892;10.692;2023-06-22T10:27:29;9.60;;;5.30;;
6651;SDS011;3362;50.892;10.692;2023-06-22T10:29:56;6.45;;;5.32;;
6651;SDS011;3362;50.892;10.692;2023-06-22T10:32:22;7.68;;;5.72;;
6651;SDS011;3362;50.892;10.692;2023-06-22T10:34:48;8.85;;;5.80;;
6651;SDS011;3362;50.892;10.692;2023-06-22T10:37:16;7.80;;;5.68;;
6651;SDS011;3362;50.892;10.692;2023-06-22T10:39:42;5.85;;;5.20;;
6651;SDS011;3362;50.892;10.692;2023-06-22T10:42:08;5.85;;;5.18;;
6651;SDS011;3362;50.892;10.692;2023-06-22T10:44:35;6.70;;;4.63;;
6651;SDS011;3362;50.892;10.692;2023-06-22T10:47:01;9.25;;;5.97;;
6651;SDS011;3362;50.892;10.692;2023-06-22T10:49:27;8.18;;;5.50;;
6651;SDS011;3362;50.892;10.692;2023-06-22T10:51:53;6.00;;;4.85;;
6651;SDS011;3362;50.892;10.692;2023-06-22T10:54:21;7.65;;;5.20;;
6651;SDS011;3362;50.892;10.692;2023-06-22T10:56:47;8.85;;;5.80;;
6651;SDS011;3362;50.892;10.692;2023-06-22T10:59:13;8.65;;;4.95;;
6651;SDS011;3362;50.892;10.692;2023-06-22T11:01:39;7.85;;;5.07;;
6651;SDS011;3362;50.892;10.692;2023-06-22T11:04:06;9.02;;;4.97;;
6651;SDS011;3362;50.892;10.692;2023-06-22T11:06:32;10.98;;;4.90;;
6651;SDS011;3362;50.892;10.692;2023-06-22T11:08:58;6.53;;;5.43;;
6651;SDS011;3362;50.892;10.692;2023-06-22T11:11:26;6.05;;;5.45;;
6651;SDS011;3362;50.892;10.692;2023-06-22T11:13:52;7.93;;;5.43;;
6651;SDS011;3362;50.892;10.692;2023-06-22T11:16:18;9.50;;;6.00;;
6651;SDS011;3362;50.892;10.692;2023-06-22T11:18:45;6.07;;;5.47;;
6651;SDS011;3362;50.892;10.692;2023-06-22T11:21:11;8.68;;;5.63;;
6651;SDS011;3362;50.892;10.692;2023-06-22T11:23:37;5.60;;;5.10;;
6651;SDS011;3362;50.892;10.692;2023-06-22T11:26:03;6.28;;;5.68;;
6651;SDS011;3362;50.892;10.692;2023-06-22T11:28:31;6.80;;;5.05;;
6651;SDS011;3362;50.892;10.692;2023-06-22T11:30:57;6.95;;;5.55;;
6651;SDS011;3362;50.892;10.692;2023-06-22T11:33:23;5.70;;;5.20;;
6651;SDS011;3362;50.892;10.692;2023-06-22T11:35:50;7.25;;;5.35;;
6651;SDS011;3362;50.892;10.692;2023-06-22T11:38:16;6.90;;;5.80;;
6651;SDS011;3362;50.892;10.692;2023-06-22T11:40:42;6.88;;;6.18;;
6651;SDS011;3362;50.892;10.692;2023-06-22T11:43:08;5.90;;;5.20;;
6651;SDS011;3362;50.892;10.692;2023-06-22T11:45:36;6.38;;;5.25;;
6651;SDS011;3362;50.892;10.692;2023-06-22T11:48:02;6.75;;;5.10;;
6651;SDS011;3362;50.892;10.692;2023-06-22T11:50:28;6.57;;;5.70;;
6651;SDS011;3362;50.892;10.692;2023-06-22T11:52:55;11.32;;;5.38;;
6651;SDS011;3362;50.892;10.692;2023-06-22T11:55:21;6.75;;;5.88;;
6651;SDS011;3362;50.892;10.692;2023-06-22T11:57:54;19.83;;;5.57;;
6651;SDS011;3362;50.892;10.692;2023-06-22T12:00:21;12.05;;;5.60;;
6651;SDS011;3362;50.892;10.692;2023-06-22T12:02:50;7.00;;;4.80;;
6651;SDS011;3362;50.892;10.692;2023-06-22T12:05:17;7.40;;;5.55;;
6651;SDS011;3362;50.892;10.692;2023-06-22T12:07:44;6.65;;;5.20;;
6651;SDS011;3362;50.892;10.692;2023-06-22T12:10:10;6.70;;;4.70;;
6651;SDS011;3362;50.892;10.692;2023-06-22T12:12:36;7.28;;;5.05;;
6651;SDS011;3362;50.892;10.692;2023-06-22T12:15:02;8.55;;;4.93;;
6651;SDS011;3362;50.892;10.692;2023-06-22T12:17:29;5.85;;;5.25;;
6651;SDS011;3362;50.892;10.692;2023-06-22T12:19:56;8.07;;;4.95;;
6651;SDS011;3362;50.892;10.692;2023-06-22T12:22:22;6.35;;;4.72;;
6651;SDS011;3362;50.892;10.692;2023-06-22T12:24:49;17.02;;;5.43;;
6651;SDS011;3362;50.892;10.692;2023-06-22T12:27:15;7.40;;;5.47;;
6651;SDS011;3362;50.892;10.692;2023-06-22T12:29:43;6.22;;;4.72;;
6651;SDS011;3362;50.892;10.692;2023-06-22T12:32:09;7.00;;;5.35;;
6651;SDS011;3362;50.892;10.692;2023-06-22T12:34:37;7.97;;;4.72;;
6651;SDS011;3362;50.892;10.692;2023-06-22T12:37:05;5.78;;;5.18;;
6651;SDS011;3362;50.892;10.692;2023-06-22T12:39:31;7.10;;;5.10;;
6651;SDS011;3362;50.892;10.692;2023-06-22T12:41:58;5.05;;;4.60;;
6651;SDS011;3362;50.892;10.692;2023-06-22T12:44:24;5.75;;;4.88;;
6651;SDS011;3362;50.892;10.692;2023-06-22T12:46:50;5.72;;;5.22;;
6651;SDS011;3362;50.892;10.692;2023-06-22T12:49:16;6.55;;;5.35;;
6651;SDS011;3362;50.892;10.692;2023-06-22T12:51:43;4.97;;;4.53;;
6651;SDS011;3362;50.892;10.692;2023-06-22T12:54:10;5.78;;;5.05;;
6651;SDS011;3362;50.892;10.692;2023-06-22T12:56:37;6.90;;;5.32;;
6651;SDS011;3362;50.892;10.692;2023-06-22T12:59:03;5.53;;;4.82;;
6651;SDS011;3362;50.892;10.692;2023-06-22T13:01:29;13.85;;;4.90;;
6651;SDS011;3362;50.892;10.692;2023-06-22T13:03:56;8.10;;;4.82;;
6651;SDS011;3362;50.892;10.692;2023-06-22T13:06:23;7.45;;;5.50;;
6651;SDS011;3362;50.892;10.692;2023-06-22T13:08:49;10.25;;;5.20;;
6651;SDS011;3362;50.892;10.692;2023-06-22T13:11:16;8.82;;;4.90;;
6651;SDS011;3362;50.892;10.692;2023-06-22T13:13:43;10.10;;;5.13;;
6651;SDS011;3362;50.892;10.692;2023-06-22T13:16:09;9.35;;;4.85;;
6651;SDS011;3362;50.892;10.692;2023-06-22T13:18:35;8.65;;;5.47;;
6651;SDS011;3362;50.892;10.692;2023-06-22T13:21:01;6.25;;;5.28;;
6651;SDS011;3362;50.892;10.692;2023-06-22T13:23:28;7.13;;;4.72;;
6651;SDS011;3362;50.892;10.692;2023-06-22T13:25:54;7.90;;;4.97;;
6651;SDS011;3362;50.892;10.692;2023-06-22T13:28:21;8.60;;;5.70;;
6651;SDS011;3362;50.892;10.692;2023-06-22T13:30:48;8.00;;;5.53;;
6651;SDS011;3362;50.892;10.692;2023-06-22T13:33:14;9.50;;;4.95;;
6651;SDS011;3362;50.892;10.692;2023-06-22T13:35:40;8.35;;;5.75;;
6651;SDS011;3362;50.892;10.692;2023-06-22T13:38:07;5.38;;;4.88;;
6651;SDS011;3362;50.892;10.692;2023-06-22T13:40:33;6.90;;;4.85;;
6651;SDS011;3362;50.892;10.692;2023-06-22T13:42:59;10.90;;;4.75;;
6651;SDS011;3362;50.892;10.692;2023-06-22T13:45:27;7.95;;;4.70;;
6651;SDS011;3362;50.892;10.692;2023-06-22T13:47:53;6.05;;;4.63;;
6651;SDS011;3362;50.892;10.692;2023-06-22T13:50:19;5.53;;;4.88;;
6651;SDS011;3362;50.892;10.692;2023-06-22T13:52:46;5.70;;;4.78;;
6651;SDS011;3362;50.892;10.692;2023-06-22T13:55:12;12.88;;;5.70;;
6651;SDS011;3362;50.892;10.692;2023-06-22T13:57:39;6.88;;;5.30;;
6651;SDS011;3362;50.892;10.692;2023-06-22T14:00:06;11.18;;;4.43;;
6651;SDS011;3362;50.892;10.692;2023-06-22T14:02:34;5.97;;;5.38;;
6651;SDS011;3362;50.892;10.692;2023-06-22T14:05:00;5.45;;;4.38;;
6651;SDS011;3362;50.892;10.692;2023-06-22T14:07:27;11.73;;;4.90;;
6651;SDS011;3362;50.892;10.692;2023-06-22T14:09:53;5.43;;;4.93;;
6651;SDS011;3362;50.892;10.692;2023-06-22T14:12:19;9.10;;;5.35;;
6651;SDS011;3362;50.892;10.692;2023-06-22T14:14:46;7.68;;;6.00;;
6651;SDS011;3362;50.892;10.692;2023-06-22T14:17:12;6.13;;;5.53;;
6651;SDS011;3362;50.892;10.692;2023-06-22T14:19:39;11.52;;;5.85;;
6651;SDS011;3362;50.892;10.692;2023-06-22T14:22:06;8.57;;;5.30;;
6651;SDS011;3362;50.892;10.692;2023-06-22T14:24:32;5.95;;;5.43;;
6651;SDS011;3362;50.892;10.692;2023-06-22T14:26:58;6.38;;;5.13;;
6651;SDS011;3362;50.892;10.692;2023-06-22T14:29:27;8.15;;;5.93;;
6651;SDS011;3362;50.892;10.692;2023-06-22T14:31:53;7.20;;;4.82;;
6651;SDS011;3362;50.892;10.692;2023-06-22T14:34:19;7.82;;;5.38;;
6651;SDS011;3362;50.892;10.692;2023-06-22T14:36:47;7.00;;;5.68;;
6651;SDS011;3362;50.892;10.692;2023-06-22T14:39:13;8.88;;;5.35;;
6651;SDS011;3362;50.892;10.692;2023-06-22T14:41:39;7.53;;;4.88;;
6651;SDS011;3362;50.892;10.692;2023-06-22T14:44:05;8.52;;;5.97;;
6651;SDS011;3362;50.892;10.692;2023-06-22T14:46:32;7.20;;;5.60;;
6651;SDS011;3362;50.892;10.692;2023-06-22T14:48:58;11.65;;;5.63;;
6651;SDS011;3362;50.892;10.692;2023-06-22T14:51:24;6.50;;;5.78;;
6651;SDS011;3362;50.892;10.692;2023-06-22T14:53:52;6.85;;;5.22;;